createdAt,value
2018-08-11T00:00:35.094Z,21.10
2018-08-11T00:03:02.227Z,21.10
2018-08-11T00:05:29.352Z,21.00
2018-08-11T00:07:56.459Z,21.00
2018-08-11T00:10:23.564Z,21.00
2018-08-11T00:12:50.690Z,21.00
2018-08-11T00:15:18.680Z,21.00
2018-08-11T00:17:45.836Z,21.00
2018-08-11T00:20:15.900Z,21.00
2018-08-11T00:22:43.037Z,21.00
2018-08-11T00:25:14.057Z,21.00
2018-08-11T00:27:41.165Z,21.00
2018-08-11T00:30:11.845Z,21.00
2018-08-11T00:32:38.945Z,21.00
2018-08-11T00:35:07.641Z,20.90
2018-08-11T00:37:38.978Z,20.90
2018-08-11T00:40:08.351Z,20.90
2018-08-11T00:42:35.841Z,20.90
2018-08-11T00:45:04.553Z,20.90
2018-08-11T00:47:31.669Z,20.80
2018-08-11T00:49:58.794Z,20.80
2018-08-11T00:52:25.954Z,20.80
2018-08-11T00:54:53.023Z,20.80
2018-08-11T00:57:20.129Z,20.80
2018-08-11T00:59:47.257Z,20.80
2018-08-11T01:02:14.379Z,20.70
2018-08-11T01:04:41.673Z,20.70
2018-08-11T01:07:08.771Z,20.70
2018-08-11T01:09:35.901Z,20.70
2018-08-11T01:12:03.001Z,20.60
2018-08-11T01:14:30.109Z,20.60
2018-08-11T01:16:57.211Z,20.60
2018-08-11T01:19:24.317Z,20.60
2018-08-11T01:21:51.448Z,20.60
2018-08-11T01:24:18.554Z,20.70
2018-08-11T01:26:45.681Z,20.70
2018-08-11T01:29:12.786Z,20.80
2018-08-11T01:31:39.893Z,20.80
2018-08-11T01:34:07.040Z,20.90
2018-08-11T01:36:34.122Z,20.90
2018-08-11T01:39:01.237Z,20.90
2018-08-11T01:41:28.342Z,20.90
2018-08-11T01:43:57.802Z,20.90
2018-08-11T01:46:24.901Z,20.90
2018-08-11T01:48:52.011Z,20.90
2018-08-11T01:51:19.102Z,20.90
2018-08-11T01:53:46.189Z,20.90
2018-08-11T01:56:15.314Z,20.90
2018-08-11T01:58:42.412Z,20.90
2018-08-11T02:01:09.523Z,20.80
2018-08-11T02:03:36.638Z,20.80
2018-08-11T02:07:33.353Z,20.80
2018-08-11T02:10:00.449Z,20.80
2018-08-11T02:12:27.560Z,20.70
2018-08-11T02:14:54.656Z,20.70
2018-08-11T02:17:21.758Z,20.80
2018-08-11T02:19:48.852Z,20.80
2018-08-11T02:22:15.949Z,20.90
2018-08-11T02:24:43.065Z,20.90
2018-08-11T02:27:10.185Z,20.90
2018-08-11T02:29:37.296Z,20.90
2018-08-11T02:32:04.393Z,20.90
2018-08-11T02:34:31.525Z,20.90
2018-08-11T02:36:58.649Z,20.90
2018-08-11T02:39:25.758Z,20.90
2018-08-11T02:41:52.837Z,20.90
2018-08-11T02:44:19.930Z,20.90
2018-08-11T02:46:47.034Z,20.90
2018-08-11T02:49:14.173Z,21.00
2018-08-11T02:51:41.285Z,21.00
2018-08-11T02:54:08.381Z,21.00
2018-08-11T02:56:35.461Z,21.00
2018-08-11T02:59:02.639Z,21.10
2018-08-11T03:01:30.065Z,21.10
2018-08-11T03:03:57.191Z,21.10
2018-08-11T03:06:24.290Z,21.10
2018-08-11T03:08:51.396Z,21.10
2018-08-11T03:11:18.842Z,21.20
2018-08-11T03:13:45.941Z,21.20
2018-08-11T03:16:13.039Z,21.20
2018-08-11T03:18:40.436Z,21.20
2018-08-11T03:21:07.519Z,21.20
2018-08-11T03:23:34.628Z,21.20
2018-08-11T03:26:01.745Z,21.20
2018-08-11T03:28:28.864Z,21.20
2018-08-11T03:30:55.992Z,21.20
2018-08-11T03:33:23.081Z,21.20
2018-08-11T03:35:50.233Z,21.20
2018-08-11T03:38:17.341Z,21.20
2018-08-11T03:40:44.471Z,21.20
2018-08-11T03:43:11.929Z,21.20
2018-08-11T03:45:39.022Z,21.20
2018-08-11T03:48:06.171Z,21.30
2018-08-11T03:50:37.297Z,21.30
2018-08-11T03:53:04.759Z,21.30
2018-08-11T03:55:31.853Z,21.20
2018-08-11T03:57:58.970Z,21.20
2018-08-11T04:00:26.086Z,21.20
2018-08-11T04:02:53.197Z,21.30
2018-08-11T04:05:20.301Z,21.30
2018-08-11T04:07:47.426Z,21.30
2018-08-11T04:10:14.553Z,21.20
2018-08-11T04:12:41.681Z,21.20
2018-08-11T04:15:08.821Z,21.20
2018-08-11T04:17:39.866Z,21.30
2018-08-11T04:20:08.753Z,21.20
2018-08-11T04:22:36.014Z,21.20
2018-08-11T04:25:03.809Z,21.20
2018-08-11T04:27:35.222Z,21.20
2018-08-11T04:30:03.108Z,21.20
2018-08-11T04:32:30.211Z,21.20
2018-08-11T04:34:57.305Z,21.20
2018-08-11T04:37:24.570Z,21.20
2018-08-11T04:39:51.670Z,21.20
2018-08-11T04:42:18.781Z,21.20
2018-08-11T04:44:45.875Z,21.20
2018-08-11T04:47:15.371Z,21.20
2018-08-11T04:49:42.474Z,21.20
2018-08-11T04:52:09.593Z,21.20
2018-08-11T04:54:36.710Z,21.20
2018-08-11T04:57:03.997Z,21.20
2018-08-11T04:59:31.126Z,21.20
2018-08-11T05:01:58.221Z,21.20
2018-08-11T05:04:25.327Z,21.20
2018-08-11T05:06:52.421Z,21.20
2018-08-11T05:09:19.524Z,21.30
2018-08-11T05:11:46.669Z,21.20
2018-08-11T05:16:46.585Z,21.30
2018-08-11T05:19:18.013Z,21.30
2018-08-11T05:21:45.107Z,21.30
2018-08-11T05:24:12.210Z,21.30
2018-08-11T05:26:47.462Z,21.30
2018-08-11T05:29:14.593Z,21.30
2018-08-11T05:31:41.695Z,21.40
2018-08-11T05:34:08.785Z,21.50
2018-08-11T05:36:35.908Z,21.80
2018-08-11T05:39:05.621Z,22.20
2018-08-11T05:41:32.723Z,22.40
2018-08-11T05:43:59.820Z,22.80
2018-08-11T05:46:26.936Z,23.10
2018-08-11T05:48:54.036Z,23.40
2018-08-11T05:51:21.141Z,23.60
2018-08-11T05:53:48.625Z,23.90
2018-08-11T05:56:15.759Z,24.10
2018-08-11T05:58:42.857Z,24.30
2018-08-11T06:01:09.969Z,24.30
2018-08-11T06:03:37.042Z,24.30
2018-08-11T06:06:04.139Z,24.20
2018-08-11T06:08:31.229Z,24.00
2018-08-11T06:10:58.301Z,23.80
2018-08-11T06:13:25.368Z,23.70
2018-08-11T06:15:52.441Z,23.60
2018-08-11T06:18:19.529Z,23.50
2018-08-11T06:20:46.598Z,23.20
2018-08-11T06:23:13.981Z,23.00
2018-08-11T06:25:41.066Z,22.90
2018-08-11T06:28:08.169Z,22.70
2018-08-11T06:30:35.421Z,22.70
2018-08-11T06:40:06.569Z,22.40
2018-08-11T06:42:33.642Z,22.10
2018-08-11T06:45:00.713Z,22.00
2018-08-11T06:47:27.790Z,22.00
2018-08-11T06:49:55.297Z,21.90
2018-08-11T06:52:22.369Z,21.80
2018-08-11T06:54:49.452Z,21.80
2018-08-11T06:57:16.912Z,21.70
2018-08-11T06:59:44.006Z,21.60
2018-08-11T07:02:11.090Z,21.60
2018-08-11T07:04:40.277Z,21.70
2018-08-11T07:07:07.398Z,21.60
2018-08-11T07:09:34.488Z,21.60
2018-08-11T07:12:01.573Z,21.60
2018-08-11T07:14:28.665Z,21.60
2018-08-11T07:16:55.757Z,21.70
2018-08-11T07:19:22.833Z,21.80
2018-08-11T07:21:49.907Z,22.00
2018-08-11T07:24:16.999Z,22.10
2018-08-11T07:26:44.098Z,22.20
2018-08-11T07:29:11.173Z,22.30
2018-08-11T07:31:38.257Z,22.40
2018-08-11T07:34:05.346Z,22.70
2018-08-11T07:36:32.465Z,22.90
2018-08-11T07:38:59.522Z,23.20
2018-08-11T07:41:26.614Z,23.40
2018-08-11T07:43:53.692Z,23.40
2018-08-11T07:46:21.169Z,23.30
2018-08-11T07:48:48.256Z,23.20
2018-08-11T07:51:15.349Z,23.10
2018-08-11T07:53:42.553Z,22.90
2018-08-11T07:56:09.666Z,22.70
2018-08-11T07:58:36.865Z,22.60
2018-08-11T08:01:03.958Z,22.50
2018-08-11T08:03:31.145Z,22.40
2018-08-11T08:05:58.217Z,22.30
2018-08-11T08:08:25.313Z,22.30
2018-08-11T08:10:52.470Z,22.20
2018-08-11T08:13:19.919Z,22.20
2018-08-11T08:15:46.549Z,22.10
2018-08-11T08:18:13.200Z,22.00
2018-08-11T08:20:40.317Z,22.00
2018-08-11T08:23:07.413Z,22.00
2018-08-11T08:25:34.648Z,22.00
2018-08-11T08:28:01.729Z,22.00
2018-08-11T08:30:28.836Z,22.00
2018-08-11T08:33:00.029Z,22.10
2018-08-11T08:35:27.109Z,22.20
2018-08-11T08:37:54.193Z,22.20
2018-08-11T08:40:21.261Z,22.20
2018-08-11T08:42:48.341Z,22.00
2018-08-11T08:45:19.487Z,22.00
2018-08-11T08:47:46.653Z,22.00
2018-08-11T08:50:13.877Z,22.10
2018-08-11T08:52:43.309Z,22.20
2018-08-11T08:55:10.428Z,22.10
2018-08-11T08:57:37.553Z,22.10
2018-08-11T09:00:04.753Z,22.00
2018-08-11T09:02:31.392Z,22.00
2018-08-11T09:04:58.580Z,21.90
2018-08-11T09:07:27.677Z,21.90
2018-08-11T09:09:54.772Z,21.90
2018-08-11T09:12:22.077Z,22.00
2018-08-11T09:14:49.165Z,22.10
2018-08-11T09:17:16.302Z,22.20
2018-08-11T09:19:43.402Z,22.30
2018-08-11T09:22:10.522Z,22.30
2018-08-11T09:24:37.606Z,22.20
2018-08-11T09:27:04.727Z,22.30
2018-08-11T09:29:31.841Z,22.20
2018-08-11T09:31:58.915Z,22.30
2018-08-11T09:34:26.012Z,22.30
2018-08-11T09:36:53.104Z,22.30
2018-08-11T09:39:20.185Z,22.30
2018-08-11T09:41:47.283Z,22.30
2018-08-11T09:44:14.377Z,22.40
2018-08-11T09:46:41.469Z,22.40
2018-08-11T09:49:08.553Z,22.40
2018-08-11T09:51:35.656Z,22.50
2018-08-11T09:54:02.777Z,22.50
2018-08-11T09:56:29.880Z,22.50
2018-08-11T09:58:56.973Z,22.50
2018-08-11T10:01:29.793Z,22.50
2018-08-11T10:03:56.882Z,22.60
2018-08-11T10:06:23.969Z,22.60
2018-08-11T10:08:51.085Z,22.60
2018-08-11T10:11:18.209Z,22.70
2018-08-11T10:13:45.297Z,22.70
2018-08-11T10:16:12.419Z,22.70
2018-08-11T10:18:39.543Z,22.70
2018-08-11T10:21:06.919Z,22.70
2018-08-11T10:23:34.029Z,22.80
2018-08-11T10:26:01.226Z,22.80
2018-08-11T10:28:28.330Z,22.90
2018-08-11T10:30:55.410Z,23.00
2018-08-11T10:33:22.517Z,22.90
2018-08-11T10:35:53.676Z,22.90
2018-08-11T10:38:20.770Z,22.90
2018-08-11T10:40:47.878Z,22.90
2018-08-11T10:43:14.981Z,23.00
2018-08-11T10:45:42.082Z,23.00
2018-08-11T10:48:09.164Z,23.00
2018-08-11T10:50:36.284Z,23.00
2018-08-11T10:53:03.353Z,22.90
2018-08-11T10:55:34.593Z,23.00
2018-08-11T10:58:01.670Z,23.00
2018-08-11T11:00:28.749Z,23.00
2018-08-11T11:02:56.161Z,23.00
2018-08-11T11:05:23.252Z,23.00
2018-08-11T11:07:50.341Z,23.00
2018-08-11T11:10:19.482Z,22.90
2018-08-11T11:12:46.585Z,23.00
2018-08-11T11:15:13.673Z,23.00
2018-08-11T11:17:40.753Z,23.10
2018-08-11T11:20:09.089Z,23.10
2018-08-11T11:22:36.192Z,23.20
2018-08-11T11:25:03.578Z,23.30
2018-08-11T11:27:30.681Z,23.40
2018-08-11T11:29:57.757Z,23.40
2018-08-11T11:32:24.869Z,23.50
2018-08-11T11:34:52.000Z,23.50
2018-08-11T11:37:19.152Z,23.60
2018-08-11T11:39:46.221Z,23.60
2018-08-11T11:42:13.309Z,23.70
2018-08-11T11:44:40.385Z,23.70
2018-08-11T11:47:07.497Z,23.70
2018-08-11T11:49:34.615Z,23.80
2018-08-11T11:52:01.712Z,23.80
2018-08-11T11:54:28.833Z,23.80
2018-08-11T11:56:55.932Z,23.90
2018-08-11T11:59:23.013Z,23.90
2018-08-11T12:01:50.118Z,24.00
2018-08-11T12:04:17.209Z,24.00
2018-08-11T12:06:44.299Z,24.10
2018-08-11T12:09:11.585Z,24.20
2018-08-11T12:11:38.885Z,24.20
2018-08-11T12:14:06.265Z,24.20
2018-08-11T12:16:33.357Z,24.30
2018-08-11T12:19:00.437Z,24.30
2018-08-11T12:21:27.520Z,24.30
2018-08-11T12:23:54.625Z,24.30
2018-08-11T12:26:21.713Z,24.40
2018-08-11T12:28:48.803Z,24.40
2018-08-11T12:31:18.206Z,24.40
2018-08-11T12:33:45.192Z,24.50
2018-08-11T12:36:12.310Z,24.50
2018-08-11T12:38:39.437Z,24.60
2018-08-11T12:41:06.521Z,24.60
2018-08-11T12:43:33.605Z,24.60
2018-08-11T12:46:00.810Z,24.60
2018-08-11T12:48:27.797Z,24.60
2018-08-11T12:50:54.893Z,24.70
2018-08-11T12:53:22.028Z,24.60
2018-08-11T12:55:49.069Z,24.60
2018-08-11T12:58:16.461Z,24.60
2018-08-11T13:00:43.575Z,24.60
2018-08-11T13:03:10.657Z,24.70
2018-08-11T13:08:15.001Z,24.60
2018-08-11T13:10:42.103Z,24.60
2018-08-11T13:13:09.199Z,24.50
2018-08-11T13:15:36.288Z,24.50
2018-08-11T13:18:03.745Z,24.50
2018-08-11T13:20:30.835Z,24.60
2018-08-11T13:22:58.250Z,24.60
2018-08-11T13:25:25.317Z,24.70
2018-08-11T13:27:52.405Z,24.70
2018-08-11T13:30:19.497Z,24.70
2018-08-11T13:32:46.601Z,24.70
2018-08-11T13:35:13.685Z,24.70
2018-08-11T13:37:40.769Z,24.70
2018-08-11T13:40:08.237Z,24.60
2018-08-11T13:42:35.336Z,24.70
2018-08-11T13:45:02.461Z,24.70
2018-08-11T13:47:29.547Z,24.70
2018-08-11T13:49:56.618Z,24.60
2018-08-11T13:52:23.717Z,24.70
2018-08-11T13:54:50.811Z,24.80
2018-08-11T13:57:17.901Z,24.80
2018-08-11T13:59:44.993Z,24.90
2018-08-11T14:02:12.077Z,24.90
2018-08-11T14:04:39.170Z,24.90
2018-08-11T14:07:06.257Z,24.90
2018-08-11T14:09:33.361Z,24.90
2018-08-11T14:12:04.545Z,24.90
2018-08-11T14:14:31.623Z,24.90
2018-08-11T14:16:58.730Z,24.90
2018-08-11T14:19:25.806Z,24.90
2018-08-11T14:21:52.913Z,25.00
2018-08-11T14:24:20.017Z,24.90
2018-08-11T14:26:47.093Z,24.90
2018-08-11T14:29:14.173Z,24.90
2018-08-11T14:31:47.301Z,24.90
2018-08-11T14:34:14.385Z,24.90
2018-08-11T14:36:41.513Z,24.90
2018-08-11T14:39:08.937Z,24.90
2018-08-11T14:41:36.050Z,24.90
2018-08-11T14:44:03.149Z,24.90
2018-08-11T14:46:30.256Z,24.90
2018-08-11T14:48:57.348Z,24.90
2018-08-11T14:51:30.559Z,24.90
2018-08-11T14:53:57.876Z,24.80
2018-08-11T14:56:25.032Z,24.80
2018-08-11T14:58:54.097Z,24.90
2018-08-11T15:01:21.174Z,24.90
2018-08-11T15:03:48.581Z,24.90
2018-08-11T15:06:15.665Z,24.90
2018-08-11T15:08:42.742Z,24.90
2018-08-11T15:11:09.827Z,24.90
2018-08-11T15:13:37.098Z,24.90
2018-08-11T15:16:10.236Z,24.90
2018-08-11T15:18:37.453Z,24.90
2018-08-11T15:21:04.537Z,24.90
2018-08-11T15:23:31.621Z,25.00
2018-08-11T15:25:58.720Z,25.00
2018-08-11T15:28:25.814Z,25.00
2018-08-11T15:30:52.893Z,25.00
2018-08-11T15:33:19.982Z,25.00
2018-08-11T15:35:47.076Z,25.00
2018-08-11T15:38:18.213Z,25.00
2018-08-11T15:40:45.305Z,25.00
2018-08-11T15:43:12.401Z,25.00
2018-08-11T15:45:39.514Z,25.00
2018-08-11T15:48:06.586Z,25.00
2018-08-11T15:50:33.695Z,25.00
2018-08-11T15:53:00.776Z,24.90
2018-08-11T15:55:27.897Z,24.90
2018-08-11T15:57:54.985Z,24.90
2018-08-11T16:00:22.061Z,24.90
2018-08-11T16:02:49.149Z,24.80
2018-08-11T16:05:16.229Z,24.70
2018-08-11T16:07:43.465Z,24.70
2018-08-11T16:10:10.550Z,24.70
2018-08-11T16:12:37.653Z,24.70
2018-08-11T16:15:04.753Z,24.70
2018-08-11T16:17:31.825Z,24.70
2018-08-11T16:19:59.241Z,24.70
2018-08-11T16:22:26.330Z,24.70
2018-08-11T16:24:53.417Z,24.70
2018-08-11T16:27:22.037Z,24.60
2018-08-11T16:29:49.113Z,24.60
2018-08-11T16:32:16.201Z,24.60
2018-08-11T16:34:43.316Z,24.60
2018-08-11T16:37:10.398Z,24.50
2018-08-11T16:39:37.485Z,24.50
2018-08-11T16:42:04.705Z,24.50
2018-08-11T16:44:31.785Z,24.50
2018-08-11T16:46:58.863Z,24.50
2018-08-11T16:49:26.329Z,24.50
2018-08-11T16:51:53.417Z,24.50
2018-08-11T16:54:20.585Z,24.50
2018-08-11T16:56:47.661Z,24.50
2018-08-11T16:59:14.738Z,24.50
2018-08-11T17:01:41.824Z,24.40
2018-08-11T17:06:42.478Z,24.40
2018-08-11T17:09:10.613Z,24.40
2018-08-11T17:11:37.713Z,24.30
2018-08-11T17:14:05.210Z,24.30
2018-08-11T17:16:32.308Z,24.30
2018-08-11T17:18:59.378Z,24.30
2018-08-11T17:21:26.449Z,24.30
2018-08-11T17:23:53.545Z,24.30
2018-08-11T17:26:20.637Z,24.30
2018-08-11T17:28:47.725Z,24.20
2018-08-11T17:31:14.833Z,24.20
2018-08-11T17:33:42.049Z,24.20
2018-08-11T17:36:09.147Z,24.20
2018-08-11T17:38:40.538Z,24.20
2018-08-11T17:41:07.591Z,24.10
2018-08-11T17:43:34.665Z,24.10
2018-08-11T17:46:01.794Z,24.10
2018-08-11T17:48:28.861Z,24.10
2018-08-11T17:50:56.273Z,24.10
2018-08-11T17:53:23.365Z,24.10
2018-08-11T17:55:50.437Z,24.10
2018-08-11T17:58:17.685Z,24.00
2018-08-11T18:00:44.761Z,24.00
2018-08-11T18:03:11.835Z,24.00
2018-08-11T18:05:38.920Z,24.00
2018-08-11T18:08:05.997Z,23.90
2018-08-11T18:10:33.141Z,23.90
2018-08-11T18:13:00.209Z,23.90
2018-08-11T18:15:27.331Z,23.90
2018-08-11T18:17:54.529Z,23.90
2018-08-11T18:20:21.613Z,23.80
2018-08-11T18:22:48.717Z,23.80
2018-08-11T18:25:22.231Z,23.80
2018-08-11T18:27:49.269Z,23.80
2018-08-11T18:30:16.510Z,23.80
2018-08-11T18:32:43.581Z,23.80
2018-08-11T18:35:10.677Z,23.70
2018-08-11T18:37:37.767Z,23.70
2018-08-11T18:40:05.281Z,23.70
2018-08-11T18:42:32.549Z,23.70
2018-08-11T18:44:59.660Z,23.70
2018-08-11T18:47:30.886Z,23.70
2018-08-11T18:49:57.989Z,23.70
2018-08-11T18:52:25.126Z,23.70
2018-08-11T18:54:52.245Z,23.70
2018-08-11T18:57:19.377Z,23.70
2018-08-11T18:59:46.518Z,23.60
2018-08-11T19:02:17.701Z,23.70
2018-08-11T19:04:44.801Z,23.60
2018-08-11T19:07:11.935Z,23.60
2018-08-11T19:09:39.053Z,23.60
2018-08-11T19:12:06.194Z,23.60
2018-08-11T19:14:33.303Z,23.60
2018-08-11T19:17:00.419Z,23.50
2018-08-11T19:19:27.567Z,23.50
2018-08-11T19:21:54.702Z,23.50
2018-08-11T19:24:21.848Z,23.50
2018-08-11T19:26:48.940Z,23.50
2018-08-11T19:29:16.057Z,23.40
2018-08-11T19:31:43.233Z,23.40
2018-08-11T19:34:10.321Z,23.40
2018-08-11T19:36:37.437Z,23.40
2018-08-11T19:39:07.081Z,23.30
2018-08-11T19:41:34.194Z,23.30
2018-08-11T19:44:01.322Z,23.30
2018-08-11T19:46:28.438Z,23.30
2018-08-11T19:48:55.525Z,23.30
2018-08-11T19:51:22.626Z,23.30
2018-08-11T19:53:49.738Z,23.20
2018-08-11T19:56:16.865Z,23.20
2018-08-11T19:58:44.837Z,23.20
2018-08-11T20:01:11.941Z,23.10
2018-08-11T20:03:39.085Z,23.10
2018-08-11T20:06:06.203Z,23.10
2018-08-11T20:08:33.331Z,23.10
2018-08-11T20:11:00.457Z,23.10
2018-08-11T20:13:27.590Z,23.10
2018-08-11T20:15:54.695Z,23.00
2018-08-11T20:18:21.839Z,23.00
2018-08-11T20:20:48.950Z,23.00
2018-08-11T20:23:16.065Z,23.00
2018-08-11T20:25:44.794Z,23.00
2018-08-11T20:28:12.317Z,23.00
2018-08-11T20:30:39.419Z,23.00
2018-08-11T20:33:06.626Z,23.00
2018-08-11T20:35:33.737Z,23.00
2018-08-11T20:38:00.847Z,23.00
2018-08-11T20:40:27.957Z,23.00
2018-08-11T20:42:55.069Z,23.00
2018-08-11T20:45:22.165Z,23.00
2018-08-11T20:47:49.277Z,23.00
2018-08-11T20:50:16.394Z,23.00
2018-08-11T20:52:43.905Z,23.10
2018-08-11T20:55:11.033Z,23.00
2018-08-11T20:57:38.152Z,23.00
2018-08-11T21:00:08.277Z,23.00
2018-08-11T21:02:35.961Z,22.90
2018-08-11T21:05:05.624Z,22.90
2018-08-11T21:07:32.721Z,23.00
2018-08-11T21:09:59.836Z,23.00
2018-08-11T21:12:26.986Z,23.00
2018-08-11T21:14:54.101Z,22.90
2018-08-11T21:17:21.233Z,23.00
2018-08-11T21:19:48.545Z,23.00
2018-08-11T21:22:15.645Z,23.00
2018-08-11T21:24:42.797Z,22.90
2018-08-11T21:27:09.453Z,22.90
2018-08-11T21:29:36.551Z,22.80
2018-08-11T21:32:03.680Z,22.80
2018-08-11T21:34:30.787Z,22.80
2018-08-11T21:36:57.954Z,22.80
2018-08-11T21:39:24.565Z,22.70
2018-08-11T21:41:51.241Z,22.70
2018-08-11T21:44:20.405Z,22.70
2018-08-11T21:46:47.533Z,22.70
2018-08-11T21:49:14.629Z,22.80
2018-08-11T21:51:41.767Z,22.80
2018-08-11T21:54:08.915Z,22.70
2018-08-11T21:56:36.097Z,22.70
2018-08-11T21:59:03.409Z,22.70
2018-08-11T22:01:30.521Z,22.60
2018-08-11T22:03:58.077Z,22.60
2018-08-11T22:06:25.232Z,22.60
2018-08-11T22:08:52.369Z,22.70
2018-08-11T22:11:19.834Z,22.70
2018-08-11T22:13:46.974Z,22.70
2018-08-11T22:16:14.134Z,22.70
2018-08-11T22:18:43.345Z,22.70
2018-08-11T22:21:10.007Z,22.60
2018-08-11T22:23:36.658Z,22.60
2018-08-11T22:26:03.362Z,22.50
2018-08-11T22:28:30.054Z,22.50
2018-08-11T22:30:56.697Z,22.50
2018-08-11T22:33:23.829Z,22.50
2018-08-11T22:35:51.033Z,22.40
2018-08-11T22:38:18.156Z,22.50
2018-08-11T22:40:45.297Z,22.50
2018-08-11T22:43:12.465Z,22.60
2018-08-11T22:45:39.905Z,22.60
2018-08-11T22:48:07.082Z,22.60
2018-08-11T22:50:34.202Z,22.60
2018-08-11T22:53:00.881Z,22.60
2018-08-11T22:55:27.681Z,22.50
2018-08-11T22:57:54.335Z,22.50
2018-08-11T23:00:21.509Z,22.40
2018-08-11T23:02:48.630Z,22.40
2018-08-11T23:05:17.189Z,22.40
2018-08-11T23:07:44.333Z,22.40
2018-08-11T23:10:12.865Z,22.40
2018-08-11T23:12:40.941Z,22.50
2018-08-11T23:15:10.669Z,22.50
2018-08-11T23:17:37.841Z,22.50
2018-08-11T23:20:05.394Z,22.60
2018-08-11T23:22:32.509Z,22.60
2018-08-11T23:24:59.614Z,22.60
2018-08-11T23:27:26.763Z,22.50
2018-08-11T23:29:53.446Z,22.50
2018-08-11T23:32:20.558Z,22.40
2018-08-11T23:34:47.688Z,22.40
2018-08-11T23:37:14.887Z,22.40
2018-08-11T23:39:42.063Z,22.40
2018-08-11T23:42:09.185Z,22.50
2018-08-11T23:44:36.306Z,22.50
2018-08-11T23:47:03.433Z,22.40
2018-08-11T23:49:30.098Z,22.40
2018-08-11T23:51:56.750Z,22.30
2018-08-11T23:54:23.424Z,22.30
2018-08-11T23:56:50.116Z,22.30
2018-08-11T23:59:16.756Z,22.20
